EAG5530 SBUL-SBIL
Flight info
| Callsign | EAG5530 |
|---|---|
| Flight time | 1h 38m |
| Altitude | 37000 |
| Route | ISRIK DCT REINA DCT MILOL DCT DOSVU DCT DALOX |
| Aircraft | B738/M-SDE2E3FGHIRWXY/LB1 |
Departure
| Time | 2026-04-29 22:57 |
|---|---|
| Airport | Ten. Cel. Aviador César Bombonato Airport (SBUL) |
Arrival
| Time | 2026-04-30 00:35 |
|---|---|
| Airport | Bahia - Jorge Amado Airport (SBIL) |
| Time | Latitude | Longitude | Altitude | Speed | Heading |
|---|---|---|---|---|---|
| 2026-04-29 22:44 | -18.89040 | -48.23055 | 3106 ft | 0 kts | 292° |
| 2026-04-29 22:51 | -18.89046 | -48.23034 | 3106 ft | 4 kts | 263° |
| 2026-04-29 22:51 | -18.89036 | -48.23011 | 3106 ft | 4 kts | 214° |
| 2026-04-29 22:51 | -18.89028 | -48.23006 | 3106 ft | 5 kts | 202° |
| 2026-04-29 22:53 | -18.89040 | -48.23011 | 3106 ft | 8 kts | 202° |
| 2026-04-29 22:54 | -18.89083 | -48.23030 | 3106 ft | 0 kts | 203° |
| 2026-04-29 22:54 | -18.89082 | -48.23038 | 3106 ft | 1 kts | 289° |
| 2026-04-29 22:54 | -18.89063 | -48.23029 | 3106 ft | 7 kts | 33° |
| 2026-04-29 22:54 | -18.89032 | -48.22985 | 3106 ft | 8 kts | 98° |
| 2026-04-29 22:55 | -18.89056 | -48.22930 | 3105 ft | 8 kts | 122° |
| 2026-04-29 22:55 | -18.89110 | -48.22921 | 3105 ft | 8 kts | 182° |
| 2026-04-29 22:55 | -18.89168 | -48.22917 | 3105 ft | 8 kts | 173° |
| 2026-04-29 22:55 | -18.89215 | -48.22935 | 3105 ft | 8 kts | 255° |
| 2026-04-29 22:56 | -18.89173 | -48.22948 | 3104 ft | 9 kts | 20° |
| 2026-04-29 22:56 | -18.88915 | -48.22835 | 3106 ft | 78 kts | 22° |
| 2026-04-29 22:56 | -18.88191 | -48.22517 | 3106 ft | 145 kts | 22° |
| 2026-04-29 22:56 | -18.87111 | -48.22042 | 3278 ft | 186 kts | 23° |
| 2026-04-29 22:57 | -18.85935 | -48.21525 | 4302 ft | 179 kts | 25° |
| 2026-04-29 22:57 | -18.84768 | -48.20998 | 5032 ft | 191 kts | 25° |
| 2026-04-29 22:57 | -18.83467 | -48.20411 | 5322 ft | 214 kts | 25° |
| 2026-04-29 22:57 | -18.82080 | -48.19636 | 5471 ft | 237 kts | 43° |
| 2026-04-29 22:58 | -18.81216 | -48.18110 | 5645 ft | 256 kts | 79° |
| 2026-04-29 22:58 | -18.81416 | -48.16217 | 6014 ft | 270 kts | 116° |
| 2026-04-29 22:58 | -18.82696 | -48.14758 | 6739 ft | 277 kts | 148° |
| 2026-04-29 22:58 | -18.84325 | -48.13684 | 7570 ft | 277 kts | 141° |
| 2026-04-29 22:59 | -18.85678 | -48.12227 | 8301 ft | 280 kts | 122° |
| 2026-04-29 22:59 | -18.86358 | -48.10309 | 9039 ft | 283 kts | 101° |
| 2026-04-29 22:59 | -18.86768 | -48.08260 | 9788 ft | 287 kts | 103° |
| 2026-04-29 22:59 | -18.87285 | -48.06203 | 10406 ft | 295 kts | 106° |
| 2026-04-29 23:00 | -18.87905 | -48.04055 | 10592 ft | 318 kts | 107° |
| 2026-04-29 23:00 | -18.88610 | -48.01758 | 10749 ft | 340 kts | 108° |
| 2026-04-29 23:00 | -18.89374 | -47.99314 | 10882 ft | 360 kts | 108° |
| 2026-04-29 23:00 | -18.90180 | -47.96737 | 11031 ft | 378 kts | 108° |
| 2026-04-29 23:01 | -18.91002 | -47.94108 | 11382 ft | 387 kts | 108° |
| 2026-04-29 23:01 | -18.91851 | -47.91390 | 11839 ft | 392 kts | 108° |
| 2026-04-29 23:01 | -18.92708 | -47.88641 | 12342 ft | 396 kts | 108° |
| 2026-04-29 23:01 | -18.93583 | -47.85833 | 12826 ft | 400 kts | 107° |
| 2026-04-29 23:02 | -18.94446 | -47.83061 | 13291 ft | 405 kts | 107° |
| 2026-04-29 23:02 | -18.95331 | -47.80217 | 13753 ft | 409 kts | 107° |
| 2026-04-29 23:02 | -18.96220 | -47.77355 | 14226 ft | 411 kts | 107° |
| 2026-04-29 23:02 | -18.97116 | -47.74473 | 14664 ft | 414 kts | 107° |
| 2026-04-29 23:03 | -18.98014 | -47.71577 | 15080 ft | 417 kts | 107° |
| 2026-04-29 23:03 | -18.98922 | -47.68653 | 15479 ft | 420 kts | 107° |
| 2026-04-29 23:03 | -18.99837 | -47.65702 | 15876 ft | 424 kts | 107° |
| 2026-04-29 23:03 | -19.00756 | -47.62735 | 16273 ft | 427 kts | 107° |
| 2026-04-29 23:04 | -19.01682 | -47.59747 | 16673 ft | 430 kts | 107° |
| 2026-04-29 23:04 | -19.02615 | -47.56731 | 17040 ft | 433 kts | 107° |
| 2026-04-29 23:04 | -19.03553 | -47.53697 | 17407 ft | 436 kts | 107° |
| 2026-04-29 23:04 | -19.04498 | -47.50642 | 17766 ft | 439 kts | 106° |
| 2026-04-29 23:05 | -19.05450 | -47.47558 | 18121 ft | 442 kts | 106° |
| 2026-04-29 23:05 | -19.06407 | -47.44458 | 18448 ft | 445 kts | 106° |
| 2026-04-29 23:05 | -19.07368 | -47.41344 | 18759 ft | 447 kts | 106° |
| 2026-04-29 23:05 | -19.08332 | -47.38218 | 19091 ft | 448 kts | 106° |
| 2026-04-29 23:06 | -19.09301 | -47.35073 | 19431 ft | 450 kts | 106° |
| 2026-04-29 23:06 | -19.10260 | -47.31959 | 19743 ft | 451 kts | 106° |
| 2026-04-29 23:06 | -19.11234 | -47.28793 | 20044 ft | 454 kts | 106° |
| 2026-04-29 23:06 | -19.12212 | -47.25612 | 20351 ft | 456 kts | 106° |
| 2026-04-29 23:07 | -19.13194 | -47.22418 | 20657 ft | 458 kts | 106° |
| 2026-04-29 23:07 | -19.14178 | -47.19209 | 20951 ft | 460 kts | 105° |
| 2026-04-29 23:07 | -19.14768 | -47.15904 | 21192 ft | 458 kts | 88° |
| 2026-04-29 23:07 | -19.14399 | -47.12589 | 21506 ft | 454 kts | 72° |
| 2026-04-29 23:08 | -19.13254 | -47.09503 | 21823 ft | 451 kts | 62° |
| 2026-04-29 23:08 | -19.11894 | -47.06512 | 22108 ft | 452 kts | 61° |
| 2026-04-29 23:08 | -19.10502 | -47.03520 | 22366 ft | 455 kts | 61° |
| 2026-04-29 23:08 | -19.09105 | -47.00517 | 22631 ft | 457 kts | 61° |
| 2026-04-29 23:09 | -19.07706 | -46.97486 | 22922 ft | 458 kts | 61° |
| 2026-04-29 23:09 | -19.06318 | -46.94449 | 23190 ft | 460 kts | 61° |
| 2026-04-29 23:09 | -19.04931 | -46.91391 | 23453 ft | 462 kts | 62° |
| 2026-04-29 23:09 | -19.03545 | -46.88321 | 23692 ft | 464 kts | 62° |
| 2026-04-29 23:10 | -19.02159 | -46.85244 | 23893 ft | 465 kts | 62° |
| 2026-04-29 23:10 | -19.00765 | -46.82148 | 24107 ft | 467 kts | 62° |
| 2026-04-29 23:10 | -18.99365 | -46.79041 | 24318 ft | 469 kts | 62° |
| 2026-04-29 23:10 | -18.97960 | -46.75923 | 24519 ft | 470 kts | 62° |
| 2026-04-29 23:11 | -18.96551 | -46.72797 | 24712 ft | 472 kts | 62° |
| 2026-04-29 23:11 | -18.95137 | -46.69666 | 24895 ft | 474 kts | 62° |
| 2026-04-29 23:11 | -18.93732 | -46.66558 | 25088 ft | 475 kts | 62° |
| 2026-04-29 23:11 | -18.92304 | -46.63398 | 25264 ft | 477 kts | 62° |
| 2026-04-29 23:12 | -18.90872 | -46.60233 | 25457 ft | 478 kts | 62° |
| 2026-04-29 23:12 | -18.89436 | -46.57059 | 25619 ft | 480 kts | 62° |
| 2026-04-29 23:12 | -18.87993 | -46.53874 | 25787 ft | 482 kts | 62° |
| 2026-04-29 23:12 | -18.87033 | -46.51755 | 25900 ft | 483 kts | 62° |
| 2026-04-29 23:13 | -18.85565 | -46.48515 | 26078 ft | 484 kts | 62° |
| 2026-04-29 23:13 | -18.84129 | -46.45349 | 26248 ft | 485 kts | 62° |
| 2026-04-29 23:13 | -18.82668 | -46.42130 | 26428 ft | 487 kts | 62° |
| 2026-04-29 23:13 | -18.81197 | -46.38890 | 26583 ft | 488 kts | 62° |
| 2026-04-29 23:14 | -18.79729 | -46.35658 | 26742 ft | 489 kts | 62° |
| 2026-04-29 23:14 | -18.78257 | -46.32419 | 26918 ft | 490 kts | 62° |
| 2026-04-29 23:14 | -18.76779 | -46.29168 | 27073 ft | 492 kts | 62° |
| 2026-04-29 23:14 | -18.75296 | -46.25910 | 27224 ft | 493 kts | 62° |
| 2026-04-29 23:15 | -18.73810 | -46.22645 | 27370 ft | 494 kts | 62° |
| 2026-04-29 23:15 | -18.72317 | -46.19368 | 27491 ft | 496 kts | 62° |
| 2026-04-29 23:15 | -18.70821 | -46.16086 | 27667 ft | 496 kts | 62° |
| 2026-04-29 23:15 | -18.69328 | -46.12810 | 27920 ft | 495 kts | 62° |
| 2026-04-29 23:16 | -18.67839 | -46.09546 | 28185 ft | 493 kts | 62° |
| 2026-04-29 23:16 | -18.66350 | -46.06284 | 28408 ft | 493 kts | 62° |
| 2026-04-29 23:16 | -18.64860 | -46.03021 | 28599 ft | 494 kts | 62° |
| 2026-04-29 23:16 | -18.63369 | -45.99760 | 28810 ft | 494 kts | 62° |
| 2026-04-29 23:17 | -18.61877 | -45.96498 | 29064 ft | 493 kts | 62° |
| 2026-04-29 23:17 | -18.60391 | -45.93249 | 29347 ft | 492 kts | 62° |
| 2026-04-29 23:17 | -18.58904 | -45.90001 | 29612 ft | 491 kts | 62° |
| 2026-04-29 23:17 | -18.57420 | -45.86762 | 29841 ft | 491 kts | 62° |
| 2026-04-29 23:18 | -18.55933 | -45.83516 | 30055 ft | 492 kts | 62° |
| 2026-04-29 23:18 | -18.54445 | -45.80272 | 30282 ft | 491 kts | 62° |
| 2026-04-29 23:18 | -18.52958 | -45.77030 | 30491 ft | 491 kts | 62° |
| 2026-04-29 23:18 | -18.51493 | -45.73838 | 30726 ft | 490 kts | 62° |
| 2026-04-29 23:19 | -18.49992 | -45.70568 | 30953 ft | 490 kts | 62° |
| 2026-04-29 23:19 | -18.48507 | -45.67337 | 31142 ft | 490 kts | 62° |
| 2026-04-29 23:19 | -18.47039 | -45.64143 | 31330 ft | 491 kts | 62° |
| 2026-04-29 23:19 | -18.45550 | -45.60904 | 31555 ft | 491 kts | 62° |
| 2026-04-29 23:20 | -18.44066 | -45.57677 | 31787 ft | 490 kts | 63° |
| 2026-04-29 23:20 | -18.42734 | -45.54367 | 32050 ft | 490 kts | 68° |
| 2026-04-29 23:20 | -18.41532 | -45.51014 | 32315 ft | 489 kts | 69° |
| 2026-04-29 23:20 | -18.40366 | -45.47642 | 32534 ft | 490 kts | 69° |
| 2026-04-29 23:21 | -18.39211 | -45.44268 | 32731 ft | 490 kts | 69° |
| 2026-04-29 23:21 | -18.38051 | -45.40895 | 32966 ft | 490 kts | 69° |
| 2026-04-29 23:21 | -18.36880 | -45.37521 | 33216 ft | 490 kts | 69° |
| 2026-04-29 23:21 | -18.35703 | -45.34160 | 33511 ft | 488 kts | 69° |
| 2026-04-29 23:22 | -18.34524 | -45.30815 | 33770 ft | 488 kts | 69° |
| 2026-04-29 23:22 | -18.33339 | -45.27467 | 33982 ft | 488 kts | 69° |
| 2026-04-29 23:22 | -18.32151 | -45.24116 | 34169 ft | 489 kts | 69° |
| 2026-04-29 23:22 | -18.30963 | -45.20768 | 34395 ft | 488 kts | 69° |
| 2026-04-29 23:23 | -18.29776 | -45.17424 | 34649 ft | 486 kts | 69° |
| 2026-04-29 23:23 | -18.28597 | -45.14102 | 34925 ft | 484 kts | 69° |
| 2026-04-29 23:23 | -18.27418 | -45.10782 | 35152 ft | 484 kts | 69° |
| 2026-04-29 23:23 | -18.26238 | -45.07462 | 35345 ft | 484 kts | 69° |
| 2026-04-29 23:24 | -18.25059 | -45.04145 | 35530 ft | 484 kts | 69° |
| 2026-04-29 23:24 | -18.23880 | -45.00831 | 35749 ft | 483 kts | 69° |
| 2026-04-29 23:24 | -18.22718 | -44.97566 | 35969 ft | 482 kts | 69° |
| 2026-04-29 23:24 | -18.21528 | -44.94224 | 36178 ft | 482 kts | 69° |
| 2026-04-29 23:25 | -18.20354 | -44.90927 | 36377 ft | 481 kts | 69° |
| 2026-04-29 23:25 | -18.19195 | -44.87677 | 36571 ft | 481 kts | 69° |
| 2026-04-29 23:25 | -18.18007 | -44.84347 | 36771 ft | 480 kts | 68° |
| 2026-04-29 23:25 | -18.16850 | -44.81107 | 36954 ft | 480 kts | 68° |
| 2026-04-29 23:26 | -18.14495 | -44.74516 | 37047 ft | 483 kts | 69° |
| 2026-04-29 23:26 | -18.12137 | -44.67924 | 37047 ft | 480 kts | 68° |
| 2026-04-29 23:27 | -18.09793 | -44.61381 | 37054 ft | 477 kts | 69° |
| 2026-04-29 23:27 | -18.07456 | -44.54863 | 37049 ft | 475 kts | 69° |
| 2026-04-29 23:28 | -18.05129 | -44.48383 | 37055 ft | 473 kts | 69° |
| 2026-04-29 23:28 | -18.02819 | -44.41956 | 37065 ft | 473 kts | 69° |
| 2026-04-29 23:29 | -18.00487 | -44.35478 | 37060 ft | 474 kts | 69° |
| 2026-04-29 23:29 | -17.98148 | -44.28986 | 37069 ft | 476 kts | 69° |
| 2026-04-29 23:30 | -17.95803 | -44.22483 | 37082 ft | 477 kts | 69° |
| 2026-04-29 23:30 | -17.93446 | -44.15954 | 37076 ft | 478 kts | 69° |
| 2026-04-29 23:31 | -17.91074 | -44.09421 | 37079 ft | 479 kts | 66° |
| 2026-04-29 23:31 | -17.87679 | -44.03437 | 37081 ft | 477 kts | 49° |
| 2026-04-29 23:32 | -17.83378 | -43.98137 | 37089 ft | 478 kts | 48° |
| 2026-04-29 23:32 | -17.79033 | -43.92838 | 37088 ft | 478 kts | 49° |
| 2026-04-29 23:33 | -17.74760 | -43.87558 | 37083 ft | 477 kts | 49° |
| 2026-04-29 23:33 | -17.70487 | -43.82237 | 37084 ft | 477 kts | 49° |
| 2026-04-29 23:34 | -17.66217 | -43.76913 | 37086 ft | 477 kts | 49° |
| 2026-04-29 23:34 | -17.61949 | -43.71598 | 37077 ft | 476 kts | 49° |
| 2026-04-29 23:35 | -17.57689 | -43.66299 | 37084 ft | 475 kts | 49° |
| 2026-04-29 23:35 | -17.53435 | -43.61014 | 37083 ft | 474 kts | 49° |
| 2026-04-29 23:36 | -17.49183 | -43.55734 | 37081 ft | 473 kts | 49° |
| 2026-04-29 23:36 | -17.44937 | -43.50467 | 37079 ft | 473 kts | 49° |
| 2026-04-29 23:37 | -17.40695 | -43.45209 | 37077 ft | 472 kts | 50° |
| 2026-04-29 23:37 | -17.36463 | -43.39967 | 37081 ft | 471 kts | 50° |
| 2026-04-29 23:38 | -17.32255 | -43.34759 | 37079 ft | 471 kts | 50° |
| 2026-04-29 23:38 | -17.28021 | -43.29522 | 37078 ft | 471 kts | 50° |
| 2026-04-29 23:39 | -17.23786 | -43.24289 | 37085 ft | 471 kts | 50° |
| 2026-04-29 23:39 | -17.19553 | -43.19062 | 37079 ft | 471 kts | 50° |
| 2026-04-29 23:40 | -17.15315 | -43.13834 | 37078 ft | 471 kts | 50° |
| 2026-04-29 23:40 | -17.11075 | -43.08606 | 37087 ft | 471 kts | 50° |
| 2026-04-29 23:41 | -17.06837 | -43.03385 | 37076 ft | 471 kts | 50° |
| 2026-04-29 23:41 | -17.02620 | -42.98194 | 37075 ft | 471 kts | 50° |
| 2026-04-29 23:42 | -16.98372 | -42.92969 | 37073 ft | 471 kts | 50° |
| 2026-04-29 23:42 | -16.94135 | -42.87761 | 37069 ft | 471 kts | 50° |
| 2026-04-29 23:43 | -16.89892 | -42.82549 | 37067 ft | 470 kts | 50° |
| 2026-04-29 23:43 | -16.85651 | -42.77344 | 37074 ft | 470 kts | 50° |
| 2026-04-29 23:44 | -16.81417 | -42.72153 | 37068 ft | 470 kts | 50° |
| 2026-04-29 23:44 | -16.77178 | -42.66957 | 37063 ft | 469 kts | 50° |
| 2026-04-29 23:45 | -16.72950 | -42.61780 | 37072 ft | 468 kts | 50° |
| 2026-04-29 23:45 | -16.68723 | -42.56607 | 37057 ft | 468 kts | 50° |
| 2026-04-29 23:46 | -16.64500 | -42.51443 | 37068 ft | 467 kts | 50° |
| 2026-04-29 23:46 | -16.60302 | -42.46312 | 37060 ft | 467 kts | 50° |
| 2026-04-29 23:47 | -16.56399 | -42.40925 | 37056 ft | 465 kts | 63° |
| 2026-04-29 23:47 | -16.53710 | -42.34796 | 37060 ft | 464 kts | 68° |
| 2026-04-29 23:48 | -16.51138 | -42.28633 | 37064 ft | 465 kts | 68° |
| 2026-04-29 23:48 | -16.48540 | -42.22500 | 37060 ft | 465 kts | 67° |
| 2026-04-29 23:49 | -16.45901 | -42.16350 | 37056 ft | 465 kts | 67° |
| 2026-04-29 23:49 | -16.43249 | -42.10199 | 37055 ft | 465 kts | 67° |
| 2026-04-29 23:50 | -16.40592 | -42.04044 | 37061 ft | 465 kts | 67° |
| 2026-04-29 23:51 | -16.36607 | -41.94818 | 37070 ft | 466 kts | 67° |
| 2026-04-29 23:51 | -16.33942 | -41.88654 | 37071 ft | 466 kts | 67° |
| 2026-04-29 23:52 | -16.31300 | -41.82547 | 37069 ft | 465 kts | 67° |
| 2026-04-29 23:52 | -16.28640 | -41.76407 | 37073 ft | 465 kts | 67° |
| 2026-04-29 23:53 | -16.25988 | -41.70290 | 37072 ft | 464 kts | 67° |
| 2026-04-29 23:53 | -16.23328 | -41.64160 | 37072 ft | 463 kts | 67° |
| 2026-04-29 23:54 | -16.20673 | -41.58048 | 37076 ft | 463 kts | 67° |
| 2026-04-29 23:54 | -16.18026 | -41.51961 | 37079 ft | 462 kts | 67° |
| 2026-04-29 23:55 | -16.15373 | -41.45864 | 37086 ft | 462 kts | 67° |
| 2026-04-29 23:55 | -16.12740 | -41.39819 | 37084 ft | 462 kts | 67° |
| 2026-04-29 23:56 | -16.10089 | -41.33739 | 37088 ft | 461 kts | 67° |
| 2026-04-29 23:56 | -16.07437 | -41.27659 | 37089 ft | 461 kts | 67° |
| 2026-04-29 23:57 | -16.04781 | -41.21580 | 37089 ft | 461 kts | 67° |
| 2026-04-29 23:57 | -16.02123 | -41.15500 | 37086 ft | 461 kts | 67° |
| 2026-04-29 23:58 | -15.99468 | -41.09431 | 37091 ft | 461 kts | 67° |
| 2026-04-29 23:58 | -15.96811 | -41.03364 | 37087 ft | 461 kts | 67° |
| 2026-04-29 23:59 | -15.94147 | -40.97286 | 37091 ft | 462 kts | 67° |
| 2026-04-29 23:59 | -15.91480 | -40.91208 | 37089 ft | 462 kts | 67° |
| 2026-04-30 00:00 | -15.88813 | -40.85135 | 37086 ft | 462 kts | 67° |
| 2026-04-30 00:00 | -15.86594 | -40.80085 | 37091 ft | 462 kts | 67° |
| 2026-04-30 00:01 | -15.83920 | -40.74006 | 36915 ft | 466 kts | 67° |
| 2026-04-30 00:01 | -15.82567 | -40.70931 | 36375 ft | 469 kts | 67° |
| 2026-04-30 00:01 | -15.81215 | -40.67862 | 35763 ft | 467 kts | 67° |
| 2026-04-30 00:01 | -15.79864 | -40.64794 | 35121 ft | 467 kts | 67° |
| 2026-04-30 00:02 | -15.78510 | -40.61723 | 34451 ft | 468 kts | 67° |
| 2026-04-30 00:02 | -15.77151 | -40.58642 | 33702 ft | 471 kts | 67° |
| 2026-04-30 00:02 | -15.75787 | -40.55548 | 32945 ft | 471 kts | 67° |
| 2026-04-30 00:02 | -15.74419 | -40.52448 | 32193 ft | 472 kts | 66° |
| 2026-04-30 00:03 | -15.73051 | -40.49349 | 31443 ft | 473 kts | 66° |
| 2026-04-30 00:03 | -15.71694 | -40.46278 | 30653 ft | 475 kts | 66° |
| 2026-04-30 00:03 | -15.70311 | -40.43148 | 29790 ft | 478 kts | 66° |
| 2026-04-30 00:03 | -15.68906 | -40.39971 | 28843 ft | 479 kts | 66° |
| 2026-04-30 00:04 | -15.67513 | -40.36822 | 27923 ft | 480 kts | 66° |
| 2026-04-30 00:04 | -15.66121 | -40.33676 | 26989 ft | 481 kts | 66° |
| 2026-04-30 00:04 | -15.64725 | -40.30522 | 26031 ft | 482 kts | 65° |
| 2026-04-30 00:04 | -15.63328 | -40.27368 | 25248 ft | 479 kts | 65° |
| 2026-04-30 00:05 | -15.61945 | -40.24246 | 24591 ft | 474 kts | 65° |
| 2026-04-30 00:05 | -15.60598 | -40.21207 | 23895 ft | 469 kts | 65° |
| 2026-04-30 00:05 | -15.59241 | -40.18157 | 23333 ft | 459 kts | 65° |
| 2026-04-30 00:05 | -15.57533 | -40.15350 | 22376 ft | 461 kts | 49° |
| 2026-04-30 00:06 | -15.55301 | -40.13036 | 22067 ft | 447 kts | 45° |
| 2026-04-30 00:06 | -15.53108 | -40.10771 | 21391 ft | 441 kts | 46° |
| 2026-04-30 00:06 | -15.50976 | -40.08521 | 20756 ft | 435 kts | 47° |
| 2026-04-30 00:06 | -15.48879 | -40.06281 | 20090 ft | 431 kts | 47° |
| 2026-04-30 00:07 | -15.46800 | -40.04047 | 19458 ft | 427 kts | 47° |
| 2026-04-30 00:07 | -15.44747 | -40.01837 | 18809 ft | 424 kts | 47° |
| 2026-04-30 00:07 | -15.42705 | -39.99641 | 18112 ft | 422 kts | 47° |
| 2026-04-30 00:07 | -15.40674 | -39.97458 | 17392 ft | 419 kts | 47° |
| 2026-04-30 00:08 | -15.38662 | -39.95297 | 16726 ft | 415 kts | 47° |
| 2026-04-30 00:08 | -15.36667 | -39.93157 | 16065 ft | 411 kts | 47° |
| 2026-04-30 00:08 | -15.34687 | -39.91035 | 15410 ft | 408 kts | 47° |
| 2026-04-30 00:08 | -15.32718 | -39.88925 | 14753 ft | 406 kts | 47° |
| 2026-04-30 00:09 | -15.30761 | -39.86827 | 14106 ft | 403 kts | 47° |
| 2026-04-30 00:09 | -15.28815 | -39.84742 | 13404 ft | 401 kts | 47° |
| 2026-04-30 00:09 | -15.26885 | -39.82675 | 12741 ft | 398 kts | 47° |
| 2026-04-30 00:09 | -15.24973 | -39.80629 | 12114 ft | 394 kts | 47° |
| 2026-04-30 00:10 | -15.23077 | -39.78600 | 11497 ft | 390 kts | 47° |
| 2026-04-30 00:10 | -15.21252 | -39.76648 | 11338 ft | 375 kts | 47° |
| 2026-04-30 00:10 | -15.19474 | -39.74748 | 11163 ft | 361 kts | 48° |
| 2026-04-30 00:10 | -15.17755 | -39.72911 | 10996 ft | 348 kts | 48° |
| 2026-04-30 00:11 | -15.16096 | -39.71137 | 10855 ft | 337 kts | 48° |
| 2026-04-30 00:11 | -15.14487 | -39.69418 | 10711 ft | 326 kts | 48° |
| 2026-04-30 00:11 | -15.12935 | -39.67758 | 10576 ft | 316 kts | 48° |
| 2026-04-30 00:11 | -15.11429 | -39.66150 | 10445 ft | 307 kts | 48° |
| 2026-04-30 00:12 | -15.09967 | -39.64587 | 10318 ft | 298 kts | 48° |
| 2026-04-30 00:12 | -15.08546 | -39.63068 | 10199 ft | 290 kts | 48° |
| 2026-04-30 00:12 | -15.07163 | -39.61590 | 10068 ft | 282 kts | 48° |
| 2026-04-30 00:12 | -15.05800 | -39.60133 | 9771 ft | 281 kts | 49° |
| 2026-04-30 00:13 | -15.04445 | -39.58685 | 9484 ft | 279 kts | 48° |
| 2026-04-30 00:13 | -15.03099 | -39.57248 | 9190 ft | 278 kts | 48° |
| 2026-04-30 00:13 | -15.01759 | -39.55818 | 8902 ft | 276 kts | 48° |
| 2026-04-30 00:13 | -15.00422 | -39.54393 | 8604 ft | 275 kts | 48° |
| 2026-04-30 00:14 | -14.99169 | -39.52917 | 8319 ft | 272 kts | 54° |
| 2026-04-30 00:14 | -14.98023 | -39.51357 | 8043 ft | 271 kts | 56° |
| 2026-04-30 00:14 | -14.96903 | -39.49793 | 7767 ft | 270 kts | 56° |
| 2026-04-30 00:14 | -14.95801 | -39.48258 | 7487 ft | 270 kts | 56° |
| 2026-04-30 00:15 | -14.94679 | -39.46705 | 7196 ft | 269 kts | 56° |
| 2026-04-30 00:15 | -14.93558 | -39.45163 | 6921 ft | 268 kts | 56° |
| 2026-04-30 00:15 | -14.92436 | -39.43626 | 6641 ft | 267 kts | 55° |
| 2026-04-30 00:15 | -14.91297 | -39.42070 | 6339 ft | 267 kts | 55° |
| 2026-04-30 00:16 | -14.90194 | -39.40567 | 6060 ft | 266 kts | 55° |
| 2026-04-30 00:16 | -14.89079 | -39.39049 | 5773 ft | 265 kts | 55° |
| 2026-04-30 00:16 | -14.87962 | -39.37530 | 5487 ft | 264 kts | 55° |
| 2026-04-30 00:16 | -14.86851 | -39.36017 | 5173 ft | 264 kts | 55° |
| 2026-04-30 00:17 | -14.85740 | -39.34508 | 4887 ft | 263 kts | 55° |
| 2026-04-30 00:17 | -14.84633 | -39.33005 | 4596 ft | 262 kts | 55° |
| 2026-04-30 00:17 | -14.83533 | -39.31512 | 4306 ft | 261 kts | 55° |
| 2026-04-30 00:17 | -14.82537 | -39.29959 | 4003 ft | 258 kts | 70° |
| 2026-04-30 00:18 | -14.82207 | -39.28174 | 3783 ft | 251 kts | 87° |
| 2026-04-30 00:18 | -14.82152 | -39.26377 | 3525 ft | 249 kts | 90° |
| 2026-04-30 00:18 | -14.82125 | -39.24599 | 3295 ft | 247 kts | 90° |
| 2026-04-30 00:18 | -14.82093 | -39.22893 | 3100 ft | 225 kts | 90° |
| 2026-04-30 00:19 | -14.82058 | -39.21368 | 2923 ft | 200 kts | 90° |
| 2026-04-30 00:19 | -14.82029 | -39.20010 | 2764 ft | 179 kts | 90° |
| 2026-04-30 00:19 | -14.81999 | -39.18792 | 2686 ft | 161 kts | 90° |
| 2026-04-30 00:19 | -14.81970 | -39.17620 | 2528 ft | 168 kts | 90° |
| 2026-04-30 00:20 | -14.81940 | -39.16402 | 2356 ft | 169 kts | 90° |
| 2026-04-30 00:20 | -14.81909 | -39.15233 | 2177 ft | 157 kts | 90° |
| 2026-04-30 00:20 | -14.81879 | -39.14146 | 1968 ft | 143 kts | 90° |
| 2026-04-30 00:20 | -14.81853 | -39.13123 | 1752 ft | 142 kts | 90° |
| 2026-04-30 00:21 | -14.81826 | -39.12099 | 1643 ft | 141 kts | 91° |
| 2026-04-30 00:21 | -14.81800 | -39.11083 | 1611 ft | 142 kts | 89° |
| 2026-04-30 00:21 | -14.81771 | -39.10064 | 1502 ft | 144 kts | 89° |
| 2026-04-30 00:21 | -14.81741 | -39.09011 | 991 ft | 148 kts | 90° |
| 2026-04-30 00:22 | -14.81721 | -39.07992 | 774 ft | 141 kts | 90° |
| 2026-04-30 00:22 | -14.81665 | -39.07007 | 622 ft | 138 kts | 90° |
| 2026-04-30 00:22 | -14.81626 | -39.05998 | 438 ft | 145 kts | 96° |
| 2026-04-30 00:22 | -14.81633 | -39.04945 | 219 ft | 147 kts | 90° |
| 2026-04-30 00:23 | -14.81602 | -39.03906 | 58 ft | 142 kts | 91° |
| 2026-04-30 00:23 | -14.81569 | -39.02964 | 67 ft | 131 kts | 91° |
| 2026-04-30 00:23 | -14.81553 | -39.01940 | 596 ft | 151 kts | 92° |
| 2026-04-30 00:23 | -14.81542 | -39.00727 | 1106 ft | 190 kts | 90° |
| 2026-04-30 00:24 | -14.81522 | -38.99254 | 1652 ft | 213 kts | 90° |
| 2026-04-30 00:24 | -14.81476 | -38.97714 | 2351 ft | 217 kts | 89° |
| 2026-04-30 00:24 | -14.81426 | -38.96157 | 3121 ft | 218 kts | 89° |
| 2026-04-30 00:24 | -14.81378 | -38.94576 | 3693 ft | 225 kts | 90° |
| 2026-04-30 00:25 | -14.81735 | -38.92933 | 3985 ft | 251 kts | 120° |
| 2026-04-30 00:25 | -14.83032 | -38.91706 | 4002 ft | 261 kts | 153° |
| 2026-04-30 00:25 | -14.84827 | -38.91320 | 4007 ft | 269 kts | 180° |
| 2026-04-30 00:25 | -14.86637 | -38.91815 | 3997 ft | 275 kts | 206° |
| 2026-04-30 00:26 | -14.88046 | -38.93141 | 3998 ft | 279 kts | 237° |
| 2026-04-30 00:26 | -14.88671 | -38.95041 | 4012 ft | 282 kts | 261° |
| 2026-04-30 00:26 | -14.88851 | -38.97063 | 4006 ft | 283 kts | 266° |
| 2026-04-30 00:26 | -14.88946 | -38.99097 | 4001 ft | 284 kts | 266° |
| 2026-04-30 00:27 | -14.89040 | -39.01129 | 4001 ft | 283 kts | 266° |
| 2026-04-30 00:27 | -14.89154 | -39.03170 | 3999 ft | 284 kts | 266° |
| 2026-04-30 00:27 | -14.89280 | -39.05179 | 3999 ft | 284 kts | 265° |
| 2026-04-30 00:27 | -14.89419 | -39.07211 | 3994 ft | 283 kts | 265° |
| 2026-04-30 00:28 | -14.89564 | -39.09240 | 4003 ft | 283 kts | 265° |
| 2026-04-30 00:28 | -14.89713 | -39.11266 | 3994 ft | 282 kts | 265° |
| 2026-04-30 00:28 | -14.89863 | -39.13285 | 4000 ft | 281 kts | 265° |
| 2026-04-30 00:28 | -14.90012 | -39.15300 | 3997 ft | 281 kts | 264° |
| 2026-04-30 00:29 | -14.90105 | -39.17316 | 3986 ft | 281 kts | 275° |
| 2026-04-30 00:29 | -14.89485 | -39.19187 | 3989 ft | 274 kts | 306° |
| 2026-04-30 00:29 | -14.88150 | -39.20466 | 3969 ft | 253 kts | 333° |
| 2026-04-30 00:29 | -14.86586 | -39.21067 | 3846 ft | 228 kts | 353° |
| 2026-04-30 00:30 | -14.85086 | -39.21204 | 3718 ft | 206 kts | 1° |
| 2026-04-30 00:30 | -14.83724 | -39.21166 | 3557 ft | 186 kts | 18° |
| 2026-04-30 00:30 | -14.82650 | -39.20513 | 3106 ft | 177 kts | 52° |
| 2026-04-30 00:30 | -14.82095 | -39.19426 | 2753 ft | 167 kts | 80° |
| 2026-04-30 00:31 | -14.81989 | -39.18269 | 2575 ft | 156 kts | 90° |
| 2026-04-30 00:31 | -14.81956 | -39.17204 | 2381 ft | 143 kts | 90° |
| 2026-04-30 00:31 | -14.81930 | -39.16204 | 2202 ft | 139 kts | 90° |
| 2026-04-30 00:31 | -14.81904 | -39.15194 | 2062 ft | 142 kts | 90° |
| 2026-04-30 00:32 | -14.81878 | -39.14180 | 1896 ft | 140 kts | 90° |
| 2026-04-30 00:32 | -14.81854 | -39.13190 | 1742 ft | 142 kts | 90° |
| 2026-04-30 00:32 | -14.81828 | -39.12166 | 1647 ft | 141 kts | 90° |
| 2026-04-30 00:32 | -14.81805 | -39.11172 | 1603 ft | 136 kts | 90° |
| 2026-04-30 00:33 | -14.81801 | -39.10174 | 1440 ft | 143 kts | 91° |
| 2026-04-30 00:33 | -14.81809 | -39.09153 | 1122 ft | 140 kts | 91° |
| 2026-04-30 00:33 | -14.81801 | -39.08165 | 969 ft | 137 kts | 89° |
| 2026-04-30 00:33 | -14.81746 | -39.07172 | 692 ft | 140 kts | 88° |
| 2026-04-30 00:34 | -14.81663 | -39.06158 | 454 ft | 142 kts | 89° |
| 2026-04-30 00:34 | -14.81631 | -39.05153 | 254 ft | 138 kts | 94° |
| 2026-04-30 00:34 | -14.81618 | -39.04134 | 90 ft | 144 kts | 90° |
| 2026-04-30 00:34 | -14.81591 | -39.03179 | 17 ft | 120 kts | 89° |
| 2026-04-30 00:35 | -14.81583 | -39.02649 | 20 ft | 8 kts | 107° |